Time;durP1;ratioP1;P1;durP2;ratioP2;P2;SDS_P1;SDS_P2;PMS_P1;PMS_P2;Temp;Humidity;BMP_temperature;BMP_pressure;BME280_temperature;BME280_humidity;BME280_pressure;Samples;Min_cycle;Max_cycle;Signal;HPM_P1;HPM_P2
2022/01/23 00:00:38;;;;;;;11.90;3.40;;;;;;;;;;5082620;28;20047;-63
2022/01/23 00:03:09;;;;;;;12.30;4.15;;;;;;;;;;5076344;28;20400;-63
2022/01/23 00:05:39;;;;;;;16.25;4.30;;;;;;;;;;5096304;28;20036;-63
2022/01/23 00:08:05;;;;;;;10.60;4.70;;;;;;;;;;5082957;28;20485;-63
2022/01/23 00:10:32;;;;;;;14.93;4.07;;;;;;;;;;5081568;28;20101;-63
2022/01/23 00:13:12;;;;;;;15.27;4.20;;;;;;;;;;5082285;28;20040;-63
2022/01/23 00:18:23;;;;;;;15.57;4.03;;;;;;;;;;5088569;28;20048;-63
2022/01/23 00:20:50;;;;;;;15.82;3.95;;;;;;;;;;5104710;28;20460;-63
2022/01/23 00:30:18;;;;;;;18.13;4.57;;;;;;;;;;5085166;28;20083;-63
2022/01/23 00:31:44;;;;;;;17.48;4.50;;;;;;;;;;5084742;28;20404;-63
2022/01/23 00:34:10;;;;;;;17.10;4.25;;;;;;;;;;5087072;28;20087;-63
2022/01/23 00:36:36;;;;;;;12.35;4.53;;;;;;;;;;5088912;28;20032;-63
2022/01/23 00:39:03;;;;;;;15.93;4.22;;;;;;;;;;5082822;28;20040;-63
2022/01/23 00:41:32;;;;;;;18.85;5.47;;;;;;;;;;5084063;28;20182;-63
2022/01/23 00:43:59;;;;;;;18.17;5.10;;;;;;;;;;5085927;28;20048;-63
2022/01/23 00:46:33;;;;;;;11.88;3.97;;;;;;;;;;5100583;28;20055;-63
2022/01/23 00:51:26;;;;;;;12.07;4.38;;;;;;;;;;5088440;28;20426;-63
2022/01/23 00:53:53;;;;;;;15.88;5.32;;;;;;;;;;5085000;28;20048;-63
2022/01/23 00:56:19;;;;;;;16.77;4.40;;;;;;;;;;5084247;28;20075;-63
2022/01/23 00:58:45;;;;;;;13.43;4.10;;;;;;;;;;5085994;28;20048;-63
2022/01/23 01:01:12;;;;;;;14.52;4.28;;;;;;;;;;5083789;28;20146;-63
2022/01/23 01:03:38;;;;;;;10.95;4.32;;;;;;;;;;5085137;28;20102;-63
2022/01/23 01:06:04;;;;;;;11.80;4.60;;;;;;;;;;5083946;28;20075;-63
2022/01/23 01:08:31;;;;;;;12.35;3.88;;;;;;;;;;5088503;28;20048;-63
2022/01/23 01:11:35;;;;;;;14.57;4.13;;;;;;;;;;5091123;28;20048;-63
2022/01/23 01:14:19;;;;;;;10.68;3.80;;;;;;;;;;5088370;28;20063;-63
2022/01/23 01:16:58;;;;;;;12.88;3.65;;;;;;;;;;5087573;28;20127;-63
2022/01/23 01:35:48;;;;;;;25.33;4.95;;;;;;;;;;5089352;28;20104;-63
2022/01/23 01:38:14;;;;;;;9.80;3.35;;;;;;;;;;5086981;28;20040;-63
2022/01/23 01:40:41;;;;;;;13.02;4.07;;;;;;;;;;5086623;28;20520;-63
2022/01/23 01:43:07;;;;;;;12.48;4.20;;;;;;;;;;5085126;28;20048;-63
2022/01/23 01:45:34;;;;;;;12.50;4.45;;;;;;;;;;5086436;28;20062;-63
2022/01/23 01:48:01;;;;;;;12.27;5.30;;;;;;;;;;5085727;28;20449;-63
2022/01/23 01:50:28;;;;;;;9.05;4.53;;;;;;;;;;5088105;28;20043;-63
2022/01/23 01:52:54;;;;;;;12.38;4.63;;;;;;;;;;5087524;28;20058;-63
2022/01/23 01:55:27;;;;;;;10.18;4.82;;;;;;;;;;5087275;28;20491;-63
2022/01/23 01:58:00;;;;;;;15.40;4.88;;;;;;;;;;5081528;28;20055;-63
2022/01/23 02:08:28;;;;;;;8.32;4.18;;;;;;;;;;5087105;28;20040;-62
2022/01/23 02:10:59;;;;;;;13.63;4.53;;;;;;;;;;5101399;28;20152;-62
2022/01/23 02:18:42;;;;;;;13.98;4.55;;;;;;;;;;5087433;28;20418;-63
2022/01/23 02:24:21;;;;;;;8.10;4.60;;;;;;;;;;5083852;28;20135;-63
2022/01/23 02:51:50;;;;;;;13.77;5.28;;;;;;;;;;5089713;28;20059;-63
2022/01/23 02:54:40;;;;;;;10.57;5.07;;;;;;;;;;5085508;28;20063;-63
2022/01/23 02:57:07;;;;;;;14.68;5.30;;;;;;;;;;5088242;28;20051;-62
2022/01/23 02:59:36;;;;;;;11.02;5.15;;;;;;;;;;5082842;28;20051;-63
2022/01/23 03:02:11;;;;;;;11.95;4.75;;;;;;;;;;5081953;28;20048;-63
2022/01/23 03:04:41;;;;;;;17.23;5.35;;;;;;;;;;5082360;28;20105;-62
2022/01/23 03:09:59;;;;;;;16.15;5.93;;;;;;;;;;5080329;28;20055;-63
2022/01/23 03:14:59;;;;;;;10.23;4.50;;;;;;;;;;5083219;28;20051;-63
2022/01/23 03:26:13;;;;;;;12.70;4.90;;;;;;;;;;5086323;28;20078;-62
2022/01/23 03:29:01;;;;;;;9.85;4.35;;;;;;;;;;5086425;28;20046;-63
2022/01/23 03:31:29;;;;;;;13.27;5.13;;;;;;;;;;5087210;28;20036;-62
2022/01/23 03:33:56;;;;;;;10.98;5.43;;;;;;;;;;5090069;28;20059;-63
2022/01/23 03:36:22;;;;;;;11.55;5.05;;;;;;;;;;5085169;28;20045;-63
2022/01/23 03:38:49;;;;;;;12.95;5.03;;;;;;;;;;5079825;28;20044;-62
2022/01/23 03:41:15;;;;;;;12.52;5.47;;;;;;;;;;5078367;28;20126;-63
2022/01/23 03:43:41;;;;;;;13.02;5.50;;;;;;;;;;5078647;28;20091;-63
2022/01/23 03:51:11;;;;;;;13.75;6.00;;;;;;;;;;5083696;28;20419;-63
2022/01/23 03:53:37;;;;;;;15.48;5.38;;;;;;;;;;5085586;28;20044;-62
2022/01/23 03:56:03;;;;;;;15.30;5.90;;;;;;;;;;5086479;28;20040;-62
2022/01/23 03:58:30;;;;;;;18.27;6.32;;;;;;;;;;5085529;28;20044;-63
2022/01/23 04:00:56;;;;;;;13.68;6.38;;;;;;;;;;5084126;28;20475;-63
2022/01/23 04:03:22;;;;;;;13.35;6.43;;;;;;;;;;5082631;28;20044;-63
2022/01/23 04:05:50;;;;;;;15.82;6.65;;;;;;;;;;5082762;28;20111;-63
2022/01/23 04:08:17;;;;;;;14.23;6.38;;;;;;;;;;5084605;28;20122;-63
2022/01/23 04:10:43;;;;;;;12.95;6.45;;;;;;;;;;5080773;28;20063;-63
2022/01/23 04:13:24;;;;;;;15.25;6.38;;;;;;;;;;5086442;28;20399;-63
2022/01/23 04:16:06;;;;;;;14.52;6.18;;;;;;;;;;5086526;28;20388;-63
2022/01/23 04:19:14;;;;;;;18.25;5.63;;;;;;;;;;5085019;28;20055;-63
2022/01/23 04:35:28;;;;;;;21.60;6.72;;;;;;;;;;5079490;28;20045;-63
2022/01/23 04:46:33;;;;;;;10.07;5.40;;;;;;;;;;5082384;28;20155;-63
2022/01/23 04:59:29;;;;;;;12.32;6.30;;;;;;;;;;5078913;28;20376;-63
2022/01/23 04:59:53;;;;;;;15.20;5.63;;;;;;;;;;5083459;28;20044;-63
2022/01/23 05:02:57;;;;;;;62.65;8.82;;;;;;;;;;5084780;28;20033;-63
2022/01/23 05:05:07;;;;;;;120.63;9.38;;;;;;;;;;5083677;28;20051;-63
2022/01/23 05:07:34;;;;;;;51.53;7.32;;;;;;;;;;5086210;28;20043;-62
2022/01/23 05:10:00;;;;;;;58.10;7.07;;;;;;;;;;5087789;28;20218;-63
2022/01/23 05:12:31;;;;;;;53.75;6.68;;;;;;;;;;5081290;28;20498;-63
2022/01/23 05:14:57;;;;;;;24.60;6.07;;;;;;;;;;5087259;28;20515;-63
2022/01/23 05:17:23;;;;;;;26.90;5.88;;;;;;;;;;5087703;28;20051;-63
2022/01/23 05:19:49;;;;;;;42.33;5.72;;;;;;;;;;5086368;28;20101;-62
2022/01/23 05:22:31;;;;;;;80.10;7.18;;;;;;;;;;5085042;28;20044;-63
2022/01/23 05:25:08;;;;;;;89.65;7.63;;;;;;;;;;5078606;28;20094;-63
2022/01/23 05:27:35;;;;;;;168.07;10.73;;;;;;;;;;5080468;28;20407;-62
2022/01/23 05:30:01;;;;;;;200.43;12.05;;;;;;;;;;5082537;28;20044;-63
2022/01/23 05:32:34;;;;;;;224.45;11.20;;;;;;;;;;5084658;28;20438;-63
2022/01/23 05:35:00;;;;;;;227.98;11.50;;;;;;;;;;5085230;28;20115;-62
2022/01/23 05:37:26;;;;;;;122.65;7.57;;;;;;;;;;5085056;28;20128;-63
2022/01/23 05:39:52;;;;;;;118.80;6.60;;;;;;;;;;5086638;28;20052;-63
2022/01/23 05:42:18;;;;;;;88.78;6.25;;;;;;;;;;5082998;28;20063;-63
2022/01/23 05:44:44;;;;;;;81.93;6.05;;;;;;;;;;5080219;28;20111;-63
2022/01/23 05:47:12;;;;;;;91.35;5.57;;;;;;;;;;5086078;28;20079;-63
2022/01/23 05:49:38;;;;;;;39.40;4.10;;;;;;;;;;5084899;28;20479;-64
2022/01/23 05:52:05;;;;;;;51.78;4.22;;;;;;;;;;5103354;28;20075;-64
2022/01/23 05:54:31;;;;;;;84.40;4.72;;;;;;;;;;5087938;28;20402;-63
2022/01/23 05:56:57;;;;;;;104.38;6.00;;;;;;;;;;5089027;28;20082;-63
2022/01/23 05:59:24;;;;;;;68.63;4.10;;;;;;;;;;5091479;28;20052;-62
2022/01/23 06:01:51;;;;;;;76.43;4.28;;;;;;;;;;5089203;28;20044;-63
2022/01/23 06:04:19;;;;;;;51.38;4.03;;;;;;;;;;5087035;28;20121;-63
2022/01/23 06:06:45;;;;;;;52.63;4.05;;;;;;;;;;5089454;28;20047;-63
2022/01/23 06:09:12;;;;;;;66.32;3.70;;;;;;;;;;5089965;28;20043;-62
2022/01/23 06:11:38;;;;;;;48.83;3.53;;;;;;;;;;5090513;28;20036;-63
2022/01/23 06:14:04;;;;;;;42.88;3.38;;;;;;;;;;5089261;28;20047;-63
2022/01/23 06:16:30;;;;;;;41.67;3.50;;;;;;;;;;5087031;28;20466;-63
2022/01/23 06:18:56;;;;;;;60.25;3.53;;;;;;;;;;5089876;28;20036;-62
2022/01/23 06:21:24;;;;;;;75.13;4.45;;;;;;;;;;5091063;28;20559;-62
2022/01/23 06:24:01;;;;;;;50.63;3.83;;;;;;;;;;5087260;28;20051;-62
2022/01/23 06:26:33;;;;;;;39.33;3.95;;;;;;;;;;5084934;28;20091;-63
2022/01/23 06:29:02;;;;;;;61.80;4.93;;;;;;;;;;5082590;28;20058;-62
2022/01/23 06:31:28;;;;;;;55.30;4.93;;;;;;;;;;5084594;28;20051;-63
2022/01/23 06:33:54;;;;;;;43.60;4.80;;;;;;;;;;5086825;28;20036;-62
2022/01/23 06:36:20;;;;;;;32.65;5.30;;;;;;;;;;5085729;28;20051;-63
2022/01/23 06:38:47;;;;;;;37.88;5.93;;;;;;;;;;5082195;28;20115;-63
2022/01/23 06:41:13;;;;;;;25.02;5.93;;;;;;;;;;5079860;28;20499;-63
2022/01/23 06:43:39;;;;;;;28.00;6.35;;;;;;;;;;5085662;28;20059;-63
2022/01/23 06:46:05;;;;;;;13.07;5.38;;;;;;;;;;5086997;28;21552;-63
2022/01/23 06:48:32;;;;;;;13.68;5.90;;;;;;;;;;5089512;28;20097;-62
2022/01/23 06:50:58;;;;;;;11.93;4.82;;;;;;;;;;5083179;28;20040;-63
2022/01/23 06:53:24;;;;;;;11.90;4.78;;;;;;;;;;5085592;28;20113;-63
2022/01/23 06:55:50;;;;;;;10.20;4.97;;;;;;;;;;5088331;28;20118;-62
2022/01/23 06:58:16;;;;;;;7.85;4.47;;;;;;;;;;5072760;28;20048;-63
2022/01/23 07:00:42;;;;;;;10.35;4.50;;;;;;;;;;5082599;28;20052;-63
2022/01/23 07:03:10;;;;;;;10.02;4.13;;;;;;;;;;5085735;28;20123;-63
2022/01/23 07:05:36;;;;;;;10.30;5.05;;;;;;;;;;5082873;28;20455;-62
2022/01/23 07:08:02;;;;;;;9.35;4.65;;;;;;;;;;5080961;28;20062;-63
2022/01/23 07:10:29;;;;;;;10.82;5.07;;;;;;;;;;5088742;28;20353;-61
2022/01/23 07:12:55;;;;;;;9.68;5.07;;;;;;;;;;5090693;28;20044;-62
2022/01/23 07:15:21;;;;;;;10.82;5.18;;;;;;;;;;5088298;28;20036;-62
2022/01/23 07:17:47;;;;;;;11.85;5.43;;;;;;;;;;5085498;28;20101;-62
2022/01/23 07:20:13;;;;;;;10.82;5.50;;;;;;;;;;5086380;28;20127;-62
2022/01/23 07:22:39;;;;;;;10.30;4.68;;;;;;;;;;5079391;28;20530;-62
2022/01/23 07:25:06;;;;;;;9.57;4.63;;;;;;;;;;5084098;28;20068;-62
2022/01/23 07:27:37;;;;;;;10.30;4.90;;;;;;;;;;5087208;28;20048;-61
2022/01/23 07:30:06;;;;;;;10.68;4.85;;;;;;;;;;5081486;28;20127;-62
2022/01/23 07:32:32;;;;;;;16.70;5.03;;;;;;;;;;5077797;28;20439;-62
2022/01/23 07:34:58;;;;;;;11.27;5.95;;;;;;;;;;5089757;28;20081;-62
2022/01/23 07:37:24;;;;;;;11.63;5.60;;;;;;;;;;5087979;28;20051;-62
2022/01/23 07:39:51;;;;;;;11.23;5.70;;;;;;;;;;5089723;28;20036;-62
2022/01/23 07:42:17;;;;;;;10.32;5.45;;;;;;;;;;5086246;28;20143;-62
2022/01/23 07:44:43;;;;;;;10.35;5.45;;;;;;;;;;5087159;28;20039;-62
2022/01/23 07:47:09;;;;;;;10.63;6.82;;;;;;;;;;5086994;28;20055;-62
2022/01/23 07:49:35;;;;;;;12.13;6.25;;;;;;;;;;5088601;28;20055;-62
2022/01/23 07:52:04;;;;;;;10.18;6.03;;;;;;;;;;5086671;28;20475;-62
2022/01/23 07:54:30;;;;;;;13.25;6.32;;;;;;;;;;5087315;28;20115;-62
2022/01/23 07:56:56;;;;;;;10.52;6.00;;;;;;;;;;5084488;28;20126;-62
2022/01/23 07:59:22;;;;;;;14.57;6.32;;;;;;;;;;5098569;28;20086;-62
2022/01/23 08:01:48;;;;;;;14.15;6.13;;;;;;;;;;5081690;28;20028;-62
2022/01/23 08:04:14;;;;;;;12.00;6.28;;;;;;;;;;5083009;28;20055;-62
2022/01/23 08:06:43;;;;;;;13.35;7.15;;;;;;;;;;5099143;28;20130;-62
2022/01/23 08:09:10;;;;;;;11.65;6.70;;;;;;;;;;5083627;28;20035;-62
2022/01/23 08:11:36;;;;;;;14.20;6.50;;;;;;;;;;5083768;28;20054;-62
2022/01/23 08:14:03;;;;;;;12.95;6.45;;;;;;;;;;5077707;28;20079;-62
2022/01/23 08:16:29;;;;;;;13.68;5.78;;;;;;;;;;5082128;28;20040;-63
2022/01/23 08:18:55;;;;;;;10.00;5.57;;;;;;;;;;5085474;28;20110;-62
2022/01/23 08:21:21;;;;;;;8.50;4.78;;;;;;;;;;5084647;28;20111;-62
2022/01/23 08:23:52;;;;;;;10.25;4.97;;;;;;;;;;5083655;28;20589;-62
2022/01/23 08:26:18;;;;;;;11.18;5.15;;;;;;;;;;5083961;28;20052;-63
2022/01/23 08:28:44;;;;;;;13.23;6.03;;;;;;;;;;5080082;28;20145;-64
2022/01/23 08:31:11;;;;;;;12.10;6.10;;;;;;;;;;5086897;28;20117;-64
2022/01/23 08:33:37;;;;;;;12.90;5.22;;;;;;;;;;5086807;28;20418;-63
2022/01/23 08:36:03;;;;;;;10.82;5.72;;;;;;;;;;5085818;28;20043;-62
2022/01/23 08:38:29;;;;;;;10.85;5.68;;;;;;;;;;5087701;28;20040;-62
2022/01/23 08:41:49;;;;;;;10.43;5.43;;;;;;;;;;5087428;28;20043;-63
2022/01/23 08:43:45;;;;;;;13.32;5.88;;;;;;;;;;5085547;28;20495;-63
2022/01/23 08:46:11;;;;;;;9.68;4.80;;;;;;;;;;5098760;28;20076;-63
2022/01/23 08:48:37;;;;;;;9.23;5.13;;;;;;;;;;5086585;28;20050;-63
2022/01/23 08:51:03;;;;;;;10.88;5.07;;;;;;;;;;5083938;28;20522;-62
2022/01/23 08:53:30;;;;;;;12.25;5.00;;;;;;;;;;5085063;28;20267;-62
2022/01/23 08:55:57;;;;;;;10.30;5.30;;;;;;;;;;5085672;28;20093;-62
2022/01/23 08:58:23;;;;;;;10.48;5.50;;;;;;;;;;5067964;28;20404;-62
2022/01/23 09:00:49;;;;;;;12.18;5.10;;;;;;;;;;5085580;28;20056;-62
2022/01/23 09:03:16;;;;;;;11.60;5.75;;;;;;;;;;5080860;28;20048;-62
2022/01/23 09:05:42;;;;;;;14.40;6.15;;;;;;;;;;5078857;28;20384;-62
2022/01/23 09:08:08;;;;;;;10.48;6.00;;;;;;;;;;5081805;28;20036;-62
2022/01/23 09:10:41;;;;;;;13.25;6.53;;;;;;;;;;5086773;28;20037;-62
2022/01/23 09:13:15;;;;;;;13.27;6.63;;;;;;;;;;5087394;28;20748;-62
2022/01/23 09:15:42;;;;;;;15.60;6.43;;;;;;;;;;5087501;28;20118;-62
2022/01/23 09:18:08;;;;;;;16.33;7.80;;;;;;;;;;5088071;28;20383;-62
2022/01/23 09:20:34;;;;;;;13.40;6.20;;;;;;;;;;5084809;28;20040;-62
2022/01/23 09:23:00;;;;;;;17.63;6.70;;;;;;;;;;5086065;28;20050;-62
2022/01/23 09:25:26;;;;;;;16.58;7.47;;;;;;;;;;5092801;28;20123;-64
2022/01/23 09:27:53;;;;;;;15.07;6.93;;;;;;;;;;5101113;28;20062;-61
2022/01/23 09:30:20;;;;;;;16.10;7.65;;;;;;;;;;5091641;28;20130;-62
2022/01/23 09:32:51;;;;;;;20.92;7.50;;;;;;;;;;5090750;28;20447;-61
2022/01/23 09:35:18;;;;;;;14.60;6.40;;;;;;;;;;5089660;28;20043;-61
2022/01/23 09:37:45;;;;;;;18.17;8.00;;;;;;;;;;5090991;28;20416;-61
2022/01/23 09:40:11;;;;;;;20.23;7.03;;;;;;;;;;5095591;27;20119;-61
2022/01/23 09:42:47;;;;;;;15.75;7.88;;;;;;;;;;5088603;28;20074;-61
2022/01/23 09:45:14;;;;;;;18.40;8.38;;;;;;;;;;5088097;28;20043;-61
2022/01/23 09:47:41;;;;;;;21.95;8.50;;;;;;;;;;5086958;28;20056;-61
2022/01/23 09:50:08;;;;;;;16.88;7.00;;;;;;;;;;5088366;28;20434;-61
2022/01/23 09:52:35;;;;;;;17.10;7.22;;;;;;;;;;5101024;28;20048;-61
2022/01/23 09:55:07;;;;;;;18.90;7.50;;;;;;;;;;5086400;28;20134;-61
2022/01/23 09:57:35;;;;;;;21.48;7.10;;;;;;;;;;5088258;28;20131;-61
2022/01/23 10:00:02;;;;;;;17.00;7.07;;;;;;;;;;5088147;28;20040;-61
2022/01/23 10:02:29;;;;;;;19.42;8.40;;;;;;;;;;5085340;28;20052;-61
2022/01/23 10:04:55;;;;;;;16.38;7.88;;;;;;;;;;5085515;28;20119;-61
2022/01/23 10:07:22;;;;;;;24.13;8.45;;;;;;;;;;5082697;28;20052;-61
2022/01/23 10:09:54;;;;;;;17.67;8.02;;;;;;;;;;5082484;28;20071;-61
2022/01/23 10:12:23;;;;;;;16.77;7.55;;;;;;;;;;5084613;28;20453;-61
2022/01/23 10:14:49;;;;;;;21.35;9.02;;;;;;;;;;5081820;28;20037;-61
2022/01/23 10:17:16;;;;;;;20.25;9.40;;;;;;;;;;5077272;28;20141;-62
2022/01/23 10:19:42;;;;;;;21.88;7.82;;;;;;;;;;5079404;28;20040;-61
2022/01/23 10:22:09;;;;;;;24.10;7.65;;;;;;;;;;5085597;28;20036;-61
2022/01/23 10:24:35;;;;;;;20.25;7.45;;;;;;;;;;5087504;28;20101;-61
2022/01/23 10:27:01;;;;;;;19.98;7.47;;;;;;;;;;5087052;28;20040;-72
2022/01/23 10:29:32;;;;;;;25.23;8.07;;;;;;;;;;5084719;28;20479;-63
2022/01/23 10:32:05;;;;;;;18.23;6.80;;;;;;;;;;5082879;28;20036;-63
2022/01/23 10:34:43;;;;;;;15.93;7.07;;;;;;;;;;5084274;28;20039;-64
2022/01/23 10:37:10;;;;;;;15.10;7.75;;;;;;;;;;5084017;28;20119;-63
2022/01/23 10:39:39;;;;;;;15.35;7.18;;;;;;;;;;5084790;28;20040;-63
2022/01/23 10:42:47;;;;;;;17.33;6.68;;;;;;;;;;5079815;28;20051;-63
2022/01/23 10:50:40;;;;;;;18.95;8.40;;;;;;;;;;5089206;28;20356;-63
2022/01/23 10:53:06;;;;;;;19.65;8.00;;;;;;;;;;5088652;28;20447;-63
2022/01/23 10:55:34;;;;;;;19.30;7.95;;;;;;;;;;5090389;28;20426;-62
2022/01/23 10:58:02;;;;;;;17.23;8.25;;;;;;;;;;5086291;28;20040;-62
2022/01/23 11:00:33;;;;;;;18.15;8.38;;;;;;;;;;5082236;28;20044;-63
2022/01/23 11:03:02;;;;;;;18.80;8.48;;;;;;;;;;5080230;28;20123;-62
2022/01/23 11:05:36;;;;;;;16.45;8.07;;;;;;;;;;5079328;28;20428;-62
2022/01/23 11:08:02;;;;;;;18.90;7.35;;;;;;;;;;5083659;28;20381;-63
2022/01/23 11:10:29;;;;;;;20.00;7.82;;;;;;;;;;5085954;28;20120;-62
2022/01/23 11:18:10;;;;;;;17.10;7.47;;;;;;;;;;5088331;28;20089;-62
2022/01/23 11:20:37;;;;;;;19.65;7.40;;;;;;;;;;5087401;28;20047;-62
2022/01/23 11:23:12;;;;;;;15.75;8.02;;;;;;;;;;5081674;28;20483;-62
2022/01/23 11:25:46;;;;;;;18.30;7.45;;;;;;;;;;5079701;28;20041;-62
2022/01/23 11:28:12;;;;;;;;;;;;;;;;;;5077176;28;20138;-62
2022/01/23 11:30:41;;;;;;;18.38;7.53;;;;;;;;;;5089588;28;20287;-63
2022/01/23 11:33:09;;;;;;;16.35;7.55;;;;;;;;;;5083446;28;20475;-63
2022/01/23 11:35:36;;;;;;;19.45;8.13;;;;;;;;;;5086686;28;20065;-66
2022/01/23 11:38:04;;;;;;;17.33;7.55;;;;;;;;;;5084356;28;20072;-63
2022/01/23 11:40:39;;;;;;;14.98;7.45;;;;;;;;;;5085237;28;20113;-63
2022/01/23 11:53:55;;;;;;;13.10;6.88;;;;;;;;;;5084302;28;20487;-63
2022/01/23 11:56:22;;;;;;;14.25;6.55;;;;;;;;;;5085326;28;20078;-63
2022/01/23 11:58:52;;;;;;;16.33;7.00;;;;;;;;;;5084195;28;20044;-63
2022/01/23 12:01:19;;;;;;;18.40;7.43;;;;;;;;;;5081989;28;20040;-63
2022/01/23 12:04:03;;;;;;;18.25;7.22;;;;;;;;;;5084980;28;20044;-63
2022/01/23 12:06:30;;;;;;;15.63;6.95;;;;;;;;;;5088489;28;20105;-63
2022/01/23 12:09:16;;;;;;;12.43;5.68;;;;;;;;;;5089789;28;20550;-63
2022/01/23 12:12:03;;;;;;;12.75;5.47;;;;;;;;;;5091522;28;20048;-62
2022/01/23 12:17:05;;;;;;;17.05;6.00;;;;;;;;;;5091026;28;20048;-62
2022/01/23 12:19:32;;;;;;;12.88;5.95;;;;;;;;;;5090059;28;20519;-63
2022/01/23 12:22:19;;;;;;;15.55;6.13;;;;;;;;;;5096083;28;20108;-62
2022/01/23 12:24:49;;;;;;;13.80;5.80;;;;;;;;;;5084346;28;20396;-62
2022/01/23 12:27:19;;;;;;;14.98;6.47;;;;;;;;;;5055970;27;20049;-62
2022/01/23 12:29:45;;;;;;;11.27;5.32;;;;;;;;;;5039171;28;20044;-62
2022/01/23 12:32:17;;;;;;;12.45;5.20;;;;;;;;;;5040656;28;20045;-62
2022/01/23 12:34:50;;;;;;;11.70;5.78;;;;;;;;;;5039798;28;20442;-62
2022/01/23 12:37:16;;;;;;;10.60;5.85;;;;;;;;;;5035206;28;20049;-62
2022/01/23 12:39:42;;;;;;;15.13;5.32;;;;;;;;;;5041389;28;20040;-62
2022/01/23 12:42:08;;;;;;;11.93;5.40;;;;;;;;;;5035028;28;20493;-62
2022/01/23 12:44:36;;;;;;;12.07;4.90;;;;;;;;;;5040024;28;20112;-62
2022/01/23 12:47:04;;;;;;;9.90;6.07;;;;;;;;;;5034365;28;20037;-62
2022/01/23 12:49:32;;;;;;;14.68;5.80;;;;;;;;;;5030501;28;20057;-62
2022/01/23 12:52:07;;;;;;;12.60;5.38;;;;;;;;;;5043817;28;20042;-62
2022/01/23 12:54:35;;;;;;;13.15;5.30;;;;;;;;;;5047130;28;20191;-63
2022/01/23 12:57:09;;;;;;;12.68;5.18;;;;;;;;;;5040373;28;20042;-63
2022/01/23 12:59:36;;;;;;;;;;;;;;;;;;5047867;28;20098;-63
2022/01/23 13:02:06;;;;;;;10.57;5.32;;;;;;;;;;5043120;28;20546;-62
2022/01/23 13:04:35;;;;;;;11.35;5.38;;;;;;;;;;5039400;28;20118;-63
2022/01/23 13:07:14;;;;;;;13.77;6.20;;;;;;;;;;5042082;28;20045;-62
2022/01/23 13:12:28;;;;;;;12.10;5.88;;;;;;;;;;5049813;28;20442;-62
2022/01/23 13:17:52;;;;;;;14.07;6.05;;;;;;;;;;5049649;28;20044;-63
2022/01/23 13:29:51;;;;;;;10.45;6.00;;;;;;;;;;5047346;28;20045;-62
2022/01/23 13:31:44;;;;;;;10.38;5.45;;;;;;;;;;5045014;28;20049;-61
2022/01/23 13:34:25;;;;;;;12.60;6.15;;;;;;;;;;5040189;28;20059;-62
2022/01/23 13:37:06;;;;;;;12.52;5.47;;;;;;;;;;5046603;28;20110;-62
2022/01/23 13:39:36;;;;;;;11.00;5.75;;;;;;;;;;5061244;28;20048;-62
2022/01/23 13:42:09;;;;;;;13.93;5.72;;;;;;;;;;5045244;28;20378;-62
2022/01/23 13:51:13;;;;;;;10.95;5.53;;;;;;;;;;5043151;28;20037;-62
2022/01/23 13:53:10;;;;;;;11.10;5.57;;;;;;;;;;5055800;28;20040;-62
2022/01/23 13:58:35;;;;;;;11.90;6.18;;;;;;;;;;5045640;28;20037;-62
2022/01/23 14:01:16;;;;;;;14.48;6.20;;;;;;;;;;5045082;28;20500;-63
2022/01/23 14:03:43;;;;;;;16.20;6.80;;;;;;;;;;5045481;28;20126;-62
2022/01/23 14:06:10;;;;;;;15.70;7.22;;;;;;;;;;5046376;28;20041;-62
2022/01/23 14:08:36;;;;;;;15.90;7.05;;;;;;;;;;5042781;28;20048;-62
2022/01/23 14:11:02;;;;;;;11.00;6.18;;;;;;;;;;5042393;28;20078;-62
2022/01/23 14:13:28;;;;;;;13.73;7.45;;;;;;;;;;5046793;28;20045;-62
2022/01/23 14:15:55;;;;;;;12.55;7.40;;;;;;;;;;5038177;28;21479;-63
2022/01/23 14:18:24;;;;;;;11.63;6.70;;;;;;;;;;5056648;28;20037;-62
2022/01/23 14:20:57;;;;;;;11.75;6.25;;;;;;;;;;5040224;28;20045;-62
2022/01/23 14:23:24;;;;;;;11.70;6.35;;;;;;;;;;5044455;28;20142;-62
2022/01/23 14:25:52;;;;;;;12.23;6.25;;;;;;;;;;5041523;28;20056;-62
2022/01/23 14:28:21;;;;;;;11.52;6.93;;;;;;;;;;5042361;28;20437;-62
2022/01/23 14:30:49;;;;;;;12.18;6.30;;;;;;;;;;5037110;28;20192;-62
2022/01/23 14:33:18;;;;;;;11.55;6.75;;;;;;;;;;5036729;28;20172;-62
2022/01/23 14:35:45;;;;;;;8.57;6.28;;;;;;;;;;5046136;28;20147;-62
2022/01/23 14:38:14;;;;;;;15.02;6.50;;;;;;;;;;5039828;28;20044;-62
2022/01/23 14:40:40;;;;;;;12.25;5.63;;;;;;;;;;5043362;28;20098;-62
2022/01/23 14:43:11;;;;;;;11.88;6.28;;;;;;;;;;5050620;28;20053;-63
2022/01/23 14:45:39;;;;;;;8.88;6.03;;;;;;;;;;5046005;28;20065;-62
2022/01/23 14:48:06;;;;;;;13.18;6.10;;;;;;;;;;5042523;28;20493;-62
2022/01/23 14:50:34;;;;;;;9.90;5.95;;;;;;;;;;5041011;28;20071;-62
2022/01/23 14:53:09;;;;;;;12.13;6.15;;;;;;;;;;5039426;28;20049;-62
2022/01/23 14:55:36;;;;;;;14.20;6.55;;;;;;;;;;5054798;28;20195;-62
2022/01/23 14:58:03;;;;;;;12.40;6.00;;;;;;;;;;5041792;28;20485;-62
2022/01/23 15:00:34;;;;;;;13.20;6.07;;;;;;;;;;5039049;28;20544;-62
2022/01/23 15:03:03;;;;;;;11.32;5.13;;;;;;;;;;5043891;28;20079;-62
2022/01/23 15:05:31;;;;;;;11.90;5.28;;;;;;;;;;5044066;28;20037;-62
2022/01/23 15:07:57;;;;;;;9.48;5.07;;;;;;;;;;5038060;28;20041;-62
2022/01/23 15:10:23;;;;;;;13.48;5.25;;;;;;;;;;5039008;28;20131;-62
2022/01/23 15:12:50;;;;;;;14.48;5.93;;;;;;;;;;5035099;28;20052;-62
2022/01/23 15:15:16;;;;;;;11.93;6.07;;;;;;;;;;5043968;28;20128;-62
2022/01/23 15:17:42;;;;;;;12.98;5.38;;;;;;;;;;5053593;28;20084;-62
2022/01/23 15:20:09;;;;;;;10.23;5.25;;;;;;;;;;5042003;28;20123;-62
2022/01/23 15:22:35;;;;;;;11.05;5.13;;;;;;;;;;5040861;28;20052;-62
2022/01/23 15:25:01;;;;;;;9.30;5.35;;;;;;;;;;5039733;28;20776;-62
2022/01/23 15:27:28;;;;;;;9.80;5.47;;;;;;;;;;5036358;28;20065;-62
2022/01/23 15:29:54;;;;;;;10.13;5.13;;;;;;;;;;5040893;28;20041;-62
2022/01/23 15:32:20;;;;;;;10.35;4.75;;;;;;;;;;5045298;28;20067;-62
2022/01/23 15:34:46;;;;;;;9.13;5.13;;;;;;;;;;5036004;28;20048;-62
2022/01/23 15:37:14;;;;;;;9.52;5.18;;;;;;;;;;5042542;28;20047;-62
2022/01/23 15:39:41;;;;;;;10.35;5.18;;;;;;;;;;5042919;28;20056;-62
2022/01/23 15:42:07;;;;;;;9.20;4.88;;;;;;;;;;5042420;28;20139;-62
2022/01/23 15:44:33;;;;;;;9.55;4.90;;;;;;;;;;5037094;28;20083;-62
2022/01/23 15:47:00;;;;;;;12.15;5.20;;;;;;;;;;5037100;28;20049;-63
2022/01/23 15:49:26;;;;;;;10.80;5.38;;;;;;;;;;5035842;28;20053;-62
2022/01/23 15:51:52;;;;;;;10.93;4.88;;;;;;;;;;5043979;28;20047;-61
2022/01/23 15:54:19;;;;;;;10.50;5.63;;;;;;;;;;5038926;28;20462;-62
2022/01/23 15:56:47;;;;;;;12.85;5.47;;;;;;;;;;5034464;28;20041;-62
2022/01/23 15:59:14;;;;;;;8.40;4.82;;;;;;;;;;5041579;28;20041;-62
2022/01/23 16:01:41;;;;;;;8.57;4.55;;;;;;;;;;5036287;28;20259;-62
2022/01/23 16:04:07;;;;;;;9.98;5.40;;;;;;;;;;5042378;28;20076;-63
2022/01/23 16:06:33;;;;;;;10.52;5.13;;;;;;;;;;5043272;28;20107;-62
2022/01/23 16:08:59;;;;;;;9.82;5.30;;;;;;;;;;5039790;28;20553;-62
2022/01/23 16:11:25;;;;;;;11.30;5.10;;;;;;;;;;5037094;28;20041;-62
2022/01/23 16:13:51;;;;;;;10.63;5.05;;;;;;;;;;5036371;28;20424;-62
2022/01/23 16:16:18;;;;;;;10.07;5.22;;;;;;;;;;5033497;28;20046;-62
2022/01/23 16:18:44;;;;;;;11.43;5.45;;;;;;;;;;5035070;28;20061;-62
2022/01/23 16:21:11;;;;;;;10.75;6.30;;;;;;;;;;5039246;28;20056;-62
2022/01/23 16:23:37;;;;;;;9.35;5.63;;;;;;;;;;5038577;28;20044;-63
2022/01/23 16:26:04;;;;;;;9.45;5.38;;;;;;;;;;5044054;28;20041;-62
2022/01/23 16:28:30;;;;;;;10.55;5.30;;;;;;;;;;5040082;28;20053;-63
2022/01/23 16:30:58;;;;;;;10.68;5.20;;;;;;;;;;5039027;28;20036;-62
2022/01/23 16:33:25;;;;;;;8.88;5.00;;;;;;;;;;5027102;28;20072;-63
2022/01/23 16:35:52;;;;;;;12.38;5.45;;;;;;;;;;5018302;28;20055;-62
2022/01/23 16:38:18;;;;;;;10.15;5.10;;;;;;;;;;5040899;28;20041;-62
2022/01/23 16:40:45;;;;;;;11.43;5.53;;;;;;;;;;5035534;28;20477;-62
2022/01/23 16:43:11;;;;;;;12.90;6.88;;;;;;;;;;5038163;28;20068;-62
2022/01/23 16:45:38;;;;;;;11.45;5.32;;;;;;;;;;5036284;28;20485;-62
2022/01/23 16:48:06;;;;;;;12.02;5.95;;;;;;;;;;5045301;28;20207;-62
2022/01/23 16:50:33;;;;;;;10.50;5.45;;;;;;;;;;5035187;28;20045;-62
2022/01/23 16:52:59;;;;;;;8.77;5.05;;;;;;;;;;5038821;28;20094;-62
2022/01/23 16:55:25;;;;;;;8.30;4.80;;;;;;;;;;5040227;28;20110;-62
2022/01/23 16:57:52;;;;;;;13.20;5.68;;;;;;;;;;5038609;28;20063;-62
2022/01/23 17:00:18;;;;;;;9.90;5.75;;;;;;;;;;5034896;28;20514;-62
2022/01/23 17:02:46;;;;;;;14.43;6.22;;;;;;;;;;5037012;28;20346;-62
2022/01/23 17:05:12;;;;;;;9.15;5.75;;;;;;;;;;5036431;28;20048;-63
2022/01/23 17:07:38;;;;;;;9.27;5.75;;;;;;;;;;5038588;28;20075;-62
2022/01/23 17:10:07;;;;;;;10.73;5.25;;;;;;;;;;5038618;28;20124;-62
2022/01/23 17:12:33;;;;;;;11.55;6.15;;;;;;;;;;5032682;28;20094;-62
2022/01/23 17:14:59;;;;;;;11.50;5.60;;;;;;;;;;5040783;28;20133;-62
2022/01/23 17:17:25;;;;;;;12.95;5.82;;;;;;;;;;5034348;28;20045;-62
2022/01/23 17:19:52;;;;;;;10.35;5.45;;;;;;;;;;5033046;28;20069;-63
2022/01/23 17:22:18;;;;;;;14.18;6.55;;;;;;;;;;5043141;28;20099;-62
2022/01/23 17:24:45;;;;;;;12.00;6.53;;;;;;;;;;5044221;28;20419;-62